SAS670 EDDV-EKCH
Flight info
| Callsign | SAS670 |
|---|---|
| Flight time | 0h 43m |
| Altitude | 31000 |
| Route | CEL Q282 DIRBO Z990 RAMAR/N0378F240 Z990 TOSPA/N0369F230 P605 GESKA/N0364F220 Z711 MONAK |
| Aircraft | A319/M-A1B1D1O1S2/LB1 |
Departure
| Time | 2026-05-04 01:00 |
|---|---|
| Airport | Hannover Airport (EDDV) |
Arrival
| Time | 2026-05-04 01:43 |
|---|---|
| Airport | Copenhagen Kastrup Airport (EKCH) |
| Time | Latitude | Longitude | Altitude | Speed | Heading |
|---|---|---|---|---|---|
| 2026-05-04 00:42 | 52.45993 | 9.69339 | 179 ft | 0 kts | 94° |
| 2026-05-04 00:52 | 52.45993 | 9.69337 | 179 ft | 2 kts | 94° |
| 2026-05-04 00:53 | 52.45995 | 9.69297 | 179 ft | 4 kts | 94° |
| 2026-05-04 00:53 | 52.45997 | 9.69252 | 179 ft | 4 kts | 94° |
| 2026-05-04 00:53 | 52.45998 | 9.69208 | 179 ft | 4 kts | 94° |
| 2026-05-04 00:53 | 52.45999 | 9.69192 | 179 ft | 0 kts | 94° |
| 2026-05-04 00:56 | 52.45999 | 9.69197 | 179 ft | 2 kts | 96° |
| 2026-05-04 00:56 | 52.45978 | 9.69209 | 179 ft | 6 kts | 182° |
| 2026-05-04 00:56 | 52.45925 | 9.69170 | 179 ft | 11 kts | 219° |
| 2026-05-04 00:57 | 52.45942 | 9.69039 | 179 ft | 17 kts | 321° |
| 2026-05-04 00:57 | 52.46052 | 9.68903 | 179 ft | 23 kts | 322° |
| 2026-05-04 00:57 | 52.46160 | 9.68766 | 179 ft | 12 kts | 322° |
| 2026-05-04 00:57 | 52.46249 | 9.68776 | 179 ft | 17 kts | 50° |
| 2026-05-04 00:58 | 52.46299 | 9.68971 | 179 ft | 21 kts | 68° |
| 2026-05-04 00:58 | 52.46359 | 9.69221 | 179 ft | 22 kts | 69° |
| 2026-05-04 00:58 | 52.46400 | 9.69393 | 179 ft | 16 kts | 69° |
| 2026-05-04 00:58 | 52.46445 | 9.69583 | 179 ft | 21 kts | 69° |
| 2026-05-04 00:59 | 52.46501 | 9.69813 | 178 ft | 18 kts | 69° |
| 2026-05-04 00:59 | 52.46570 | 9.69941 | 177 ft | 18 kts | 18° |
| 2026-05-04 00:59 | 52.46683 | 9.69946 | 176 ft | 9 kts | 336° |
| 2026-05-04 00:59 | 52.46704 | 9.69676 | 175 ft | 53 kts | 272° |
| 2026-05-04 01:00 | 52.46731 | 9.68707 | 176 ft | 116 kts | 272° |
| 2026-05-04 01:00 | 52.46772 | 9.67097 | 216 ft | 162 kts | 274° |
| 2026-05-04 01:00 | 52.46828 | 9.65256 | 839 ft | 161 kts | 271° |
| 2026-05-04 01:00 | 52.46891 | 9.63403 | 1475 ft | 169 kts | 275° |
| 2026-05-04 01:01 | 52.47380 | 9.61494 | 1812 ft | 199 kts | 305° |
| 2026-05-04 01:01 | 52.48426 | 9.59890 | 2624 ft | 207 kts | 314° |
| 2026-05-04 01:01 | 52.49479 | 9.58273 | 3593 ft | 208 kts | 311° |
| 2026-05-04 01:01 | 52.50528 | 9.56615 | 4562 ft | 212 kts | 314° |
| 2026-05-04 01:02 | 52.51853 | 9.55416 | 5398 ft | 228 kts | 339° |
| 2026-05-04 01:02 | 52.53468 | 9.55242 | 6294 ft | 238 kts | 357° |
| 2026-05-04 01:02 | 52.55132 | 9.55319 | 7168 ft | 241 kts | 355° |
| 2026-05-04 01:02 | 52.56821 | 9.55605 | 7976 ft | 254 kts | 15° |
| 2026-05-04 01:03 | 52.58277 | 9.57313 | 8747 ft | 269 kts | 51° |
| 2026-05-04 01:03 | 52.59015 | 9.60250 | 9154 ft | 292 kts | 84° |
| 2026-05-04 01:03 | 52.59172 | 9.63677 | 9733 ft | 308 kts | 92° |
| 2026-05-04 01:03 | 52.59147 | 9.67265 | 10282 ft | 324 kts | 95° |
| 2026-05-04 01:04 | 52.59050 | 9.71096 | 10668 ft | 344 kts | 95° |
| 2026-05-04 01:04 | 52.58955 | 9.75023 | 11334 ft | 352 kts | 95° |
| 2026-05-04 01:04 | 52.58895 | 9.79065 | 12137 ft | 356 kts | 94° |
| 2026-05-04 01:04 | 52.58873 | 9.83152 | 12936 ft | 360 kts | 93° |
| 2026-05-04 01:05 | 52.58878 | 9.87311 | 13727 ft | 365 kts | 92° |
| 2026-05-04 01:05 | 52.58895 | 9.91505 | 14422 ft | 369 kts | 92° |
| 2026-05-04 01:05 | 52.58916 | 9.95747 | 15114 ft | 373 kts | 92° |
| 2026-05-04 01:05 | 52.59010 | 10.00030 | 15796 ft | 378 kts | 85° |
| 2026-05-04 01:06 | 52.59549 | 10.04291 | 16456 ft | 384 kts | 73° |
| 2026-05-04 01:06 | 52.60581 | 10.08373 | 17105 ft | 390 kts | 63° |
| 2026-05-04 01:06 | 52.61805 | 10.12372 | 17771 ft | 393 kts | 63° |
| 2026-05-04 01:06 | 52.63034 | 10.16418 | 18405 ft | 397 kts | 63° |
| 2026-05-04 01:07 | 52.64270 | 10.20513 | 18986 ft | 401 kts | 64° |
| 2026-05-04 01:07 | 52.65507 | 10.24640 | 19544 ft | 404 kts | 64° |
| 2026-05-04 01:07 | 52.66754 | 10.28809 | 20101 ft | 408 kts | 64° |
| 2026-05-04 01:07 | 52.68012 | 10.33018 | 20661 ft | 411 kts | 64° |
| 2026-05-04 01:08 | 52.69276 | 10.37267 | 21205 ft | 415 kts | 65° |
| 2026-05-04 01:08 | 52.70552 | 10.41558 | 21738 ft | 418 kts | 65° |
| 2026-05-04 01:08 | 52.71840 | 10.45883 | 22266 ft | 422 kts | 65° |
| 2026-05-04 01:08 | 52.73137 | 10.50248 | 22795 ft | 426 kts | 65° |
| 2026-05-04 01:09 | 52.74445 | 10.54654 | 23337 ft | 429 kts | 65° |
| 2026-05-04 01:09 | 52.75764 | 10.59099 | 23804 ft | 433 kts | 65° |
| 2026-05-04 01:09 | 52.77088 | 10.63586 | 24208 ft | 437 kts | 66° |
| 2026-05-04 01:09 | 52.78424 | 10.68130 | 24575 ft | 442 kts | 66° |
| 2026-05-04 01:10 | 52.79835 | 10.72671 | 24968 ft | 448 kts | 60° |
| 2026-05-04 01:10 | 52.81683 | 10.76754 | 25372 ft | 452 kts | 47° |
| 2026-05-04 01:10 | 52.84020 | 10.80248 | 25792 ft | 455 kts | 35° |
| 2026-05-04 01:10 | 52.86728 | 10.82939 | 26187 ft | 456 kts | 22° |
| 2026-05-04 01:11 | 52.89710 | 10.84688 | 26602 ft | 454 kts | 10° |
| 2026-05-04 01:11 | 52.92822 | 10.85443 | 27020 ft | 452 kts | 359° |
| 2026-05-04 01:11 | 52.95972 | 10.85764 | 27404 ft | 455 kts | 359° |
| 2026-05-04 01:11 | 52.99137 | 10.86088 | 27809 ft | 457 kts | 359° |
| 2026-05-04 01:12 | 53.02321 | 10.86421 | 28213 ft | 460 kts | 359° |
| 2026-05-04 01:12 | 53.05527 | 10.86763 | 28614 ft | 463 kts | 359° |
| 2026-05-04 01:12 | 53.08754 | 10.87112 | 29015 ft | 466 kts | 359° |
| 2026-05-04 01:12 | 53.12002 | 10.87469 | 29405 ft | 469 kts | 359° |
| 2026-05-04 01:13 | 53.15269 | 10.87831 | 29793 ft | 472 kts | 359° |
| 2026-05-04 01:13 | 53.18561 | 10.88190 | 30155 ft | 475 kts | 359° |
| 2026-05-04 01:13 | 53.21864 | 10.88544 | 30477 ft | 477 kts | 359° |
| 2026-05-04 01:13 | 53.25184 | 10.88897 | 30805 ft | 479 kts | 359° |
| 2026-05-04 01:14 | 53.28510 | 10.89253 | 30900 ft | 476 kts | 359° |
| 2026-05-04 01:14 | 53.31770 | 10.89613 | 30922 ft | 462 kts | 359° |
| 2026-05-04 01:14 | 53.34931 | 10.89967 | 30921 ft | 449 kts | 359° |
| 2026-05-04 01:15 | 53.41101 | 10.90632 | 30918 ft | 442 kts | 359° |
| 2026-05-04 01:15 | 53.47232 | 10.91271 | 30912 ft | 441 kts | 359° |
| 2026-05-04 01:16 | 53.53361 | 10.91927 | 30929 ft | 442 kts | 359° |
| 2026-05-04 01:16 | 53.59472 | 10.92607 | 30900 ft | 439 kts | 359° |
| 2026-05-04 01:17 | 53.65575 | 10.93290 | 30902 ft | 439 kts | 359° |
| 2026-05-04 01:17 | 53.71667 | 10.93960 | 30899 ft | 438 kts | 359° |
| 2026-05-04 01:18 | 53.77753 | 10.94621 | 30910 ft | 438 kts | 359° |
| 2026-05-04 01:18 | 53.83840 | 10.95284 | 30891 ft | 438 kts | 359° |
| 2026-05-04 01:19 | 53.89925 | 10.95958 | 30882 ft | 438 kts | 359° |
| 2026-05-04 01:19 | 53.96008 | 10.96630 | 30877 ft | 438 kts | 359° |
| 2026-05-04 01:20 | 54.02099 | 10.97309 | 30883 ft | 439 kts | 359° |
| 2026-05-04 01:20 | 54.08162 | 10.98745 | 30871 ft | 446 kts | 14° |
| 2026-05-04 01:20 | 54.11056 | 11.00702 | 30870 ft | 450 kts | 25° |
| 2026-05-04 01:21 | 54.13722 | 11.03502 | 30870 ft | 452 kts | 36° |
| 2026-05-04 01:21 | 54.16072 | 11.07051 | 30859 ft | 452 kts | 47° |
| 2026-05-04 01:21 | 54.18211 | 11.11003 | 30610 ft | 453 kts | 48° |
| 2026-05-04 01:21 | 54.20341 | 11.14966 | 30132 ft | 453 kts | 48° |
| 2026-05-04 01:22 | 54.22467 | 11.18934 | 29625 ft | 452 kts | 48° |
| 2026-05-04 01:22 | 54.24585 | 11.22888 | 29147 ft | 450 kts | 48° |
| 2026-05-04 01:22 | 54.26666 | 11.26779 | 28695 ft | 448 kts | 48° |
| 2026-05-04 01:22 | 54.28795 | 11.30767 | 28204 ft | 447 kts | 48° |
| 2026-05-04 01:23 | 54.30858 | 11.34644 | 27719 ft | 447 kts | 48° |
| 2026-05-04 01:23 | 54.32946 | 11.38579 | 27210 ft | 446 kts | 48° |
| 2026-05-04 01:23 | 54.35029 | 11.42517 | 26698 ft | 446 kts | 48° |
| 2026-05-04 01:23 | 54.37108 | 11.46455 | 26172 ft | 446 kts | 48° |
| 2026-05-04 01:24 | 54.39192 | 11.50398 | 25642 ft | 446 kts | 48° |
| 2026-05-04 01:24 | 54.41278 | 11.54328 | 25075 ft | 446 kts | 47° |
| 2026-05-04 01:24 | 54.43370 | 11.58272 | 24495 ft | 447 kts | 47° |
| 2026-05-04 01:24 | 54.45461 | 11.62224 | 23972 ft | 446 kts | 47° |
| 2026-05-04 01:25 | 54.47545 | 11.66174 | 23416 ft | 446 kts | 47° |
| 2026-05-04 01:25 | 54.49624 | 11.70118 | 22840 ft | 444 kts | 47° |
| 2026-05-04 01:25 | 54.51688 | 11.74036 | 22333 ft | 440 kts | 47° |
| 2026-05-04 01:25 | 54.53731 | 11.77920 | 21840 ft | 436 kts | 47° |
| 2026-05-04 01:26 | 54.55757 | 11.81773 | 21349 ft | 432 kts | 47° |
| 2026-05-04 01:26 | 54.57764 | 11.85598 | 20873 ft | 428 kts | 47° |
| 2026-05-04 01:26 | 54.59749 | 11.89391 | 20388 ft | 424 kts | 47° |
| 2026-05-04 01:26 | 54.61812 | 11.92988 | 19880 ft | 420 kts | 40° |
| 2026-05-04 01:27 | 54.64128 | 11.95988 | 19413 ft | 414 kts | 32° |
| 2026-05-04 01:27 | 54.66521 | 11.98736 | 18909 ft | 411 kts | 32° |
| 2026-05-04 01:27 | 54.68892 | 12.01468 | 18410 ft | 409 kts | 32° |
| 2026-05-04 01:27 | 54.71249 | 12.04194 | 17848 ft | 406 kts | 32° |
| 2026-05-04 01:28 | 54.73587 | 12.06902 | 17318 ft | 402 kts | 32° |
| 2026-05-04 01:28 | 54.75902 | 12.09584 | 16794 ft | 398 kts | 32° |
| 2026-05-04 01:28 | 54.78190 | 12.12238 | 16264 ft | 395 kts | 31° |
| 2026-05-04 01:28 | 54.80460 | 12.14873 | 15736 ft | 391 kts | 31° |
| 2026-05-04 01:29 | 54.82717 | 12.17498 | 15203 ft | 388 kts | 31° |
| 2026-05-04 01:29 | 54.84949 | 12.20099 | 14686 ft | 385 kts | 31° |
| 2026-05-04 01:29 | 54.87167 | 12.22689 | 14156 ft | 383 kts | 31° |
| 2026-05-04 01:29 | 54.89372 | 12.25270 | 13674 ft | 380 kts | 31° |
| 2026-05-04 01:30 | 54.91550 | 12.27825 | 13489 ft | 385 kts | 31° |
| 2026-05-04 01:30 | 54.93803 | 12.30454 | 13215 ft | 393 kts | 30° |
| 2026-05-04 01:30 | 54.96196 | 12.32735 | 12951 ft | 391 kts | 22° |
| 2026-05-04 01:30 | 54.98644 | 12.34791 | 12687 ft | 390 kts | 22° |
| 2026-05-04 01:31 | 55.01083 | 12.36845 | 12426 ft | 389 kts | 22° |
| 2026-05-04 01:31 | 55.03516 | 12.38895 | 12169 ft | 387 kts | 22° |
| 2026-05-04 01:31 | 55.05933 | 12.40934 | 11919 ft | 385 kts | 22° |
| 2026-05-04 01:31 | 55.08345 | 12.42973 | 11802 ft | 384 kts | 22° |
| 2026-05-04 01:32 | 55.10751 | 12.45007 | 11830 ft | 385 kts | 22° |
| 2026-05-04 01:32 | 55.13155 | 12.47040 | 11829 ft | 385 kts | 22° |
| 2026-05-04 01:32 | 55.15563 | 12.49084 | 11834 ft | 385 kts | 22° |
| 2026-05-04 01:32 | 55.17971 | 12.51136 | 11824 ft | 384 kts | 22° |
| 2026-05-04 01:33 | 55.20372 | 12.53190 | 11827 ft | 384 kts | 22° |
| 2026-05-04 01:33 | 55.22774 | 12.55241 | 11827 ft | 384 kts | 22° |
| 2026-05-04 01:33 | 55.25177 | 12.57288 | 11822 ft | 384 kts | 22° |
| 2026-05-04 01:33 | 55.27579 | 12.59338 | 11822 ft | 384 kts | 22° |
| 2026-05-04 01:34 | 55.29980 | 12.61391 | 11819 ft | 384 kts | 22° |
| 2026-05-04 01:34 | 55.32383 | 12.63449 | 11725 ft | 385 kts | 22° |
| 2026-05-04 01:34 | 55.34786 | 12.65513 | 11060 ft | 384 kts | 22° |
| 2026-05-04 01:34 | 55.37177 | 12.67571 | 10438 ft | 381 kts | 22° |
| 2026-05-04 01:35 | 55.39554 | 12.69614 | 9814 ft | 379 kts | 22° |
| 2026-05-04 01:35 | 55.41909 | 12.71641 | 9149 ft | 375 kts | 22° |
| 2026-05-04 01:35 | 55.44238 | 12.73652 | 8558 ft | 370 kts | 22° |
| 2026-05-04 01:35 | 55.46510 | 12.75626 | 8098 ft | 361 kts | 22° |
| 2026-05-04 01:36 | 55.48751 | 12.77572 | 7508 ft | 357 kts | 22° |
| 2026-05-04 01:36 | 55.50973 | 12.79495 | 6925 ft | 354 kts | 22° |
| 2026-05-04 01:36 | 55.53174 | 12.81397 | 6347 ft | 351 kts | 22° |
| 2026-05-04 01:36 | 55.55352 | 12.83283 | 5768 ft | 347 kts | 22° |
| 2026-05-04 01:37 | 55.57491 | 12.85143 | 5451 ft | 335 kts | 22° |
| 2026-05-04 01:37 | 55.59533 | 12.86927 | 5322 ft | 319 kts | 22° |
| 2026-05-04 01:37 | 55.60830 | 12.88062 | 5236 ft | 310 kts | 22° |
| 2026-05-04 01:37 | 55.63345 | 12.90267 | 5088 ft | 294 kts | 22° |
| 2026-05-04 01:38 | 55.64544 | 12.91315 | 5004 ft | 287 kts | 22° |
| 2026-05-04 01:38 | 55.66302 | 12.92851 | 4892 ft | 277 kts | 22° |
| 2026-05-04 01:38 | 55.68579 | 12.94571 | 4778 ft | 259 kts | 5° |
| 2026-05-04 01:38 | 55.69760 | 12.94619 | 4705 ft | 246 kts | 345° |
| 2026-05-04 01:39 | 55.71702 | 12.92900 | 4262 ft | 236 kts | 309° |
| 2026-05-04 01:39 | 55.72442 | 12.91430 | 4008 ft | 238 kts | 306° |
| 2026-05-04 01:39 | 55.73531 | 12.89200 | 3645 ft | 239 kts | 304° |
| 2026-05-04 01:39 | 55.74187 | 12.86604 | 3288 ft | 230 kts | 271° |
| 2026-05-04 01:40 | 55.73747 | 12.83991 | 2974 ft | 224 kts | 233° |
| 2026-05-04 01:40 | 55.72573 | 12.82243 | 2685 ft | 223 kts | 221° |
| 2026-05-04 01:40 | 55.71378 | 12.80505 | 2394 ft | 222 kts | 224° |
| 2026-05-04 01:40 | 55.70214 | 12.78700 | 2096 ft | 222 kts | 225° |
| 2026-05-04 01:41 | 55.69067 | 12.76911 | 1790 ft | 215 kts | 225° |
| 2026-05-04 01:41 | 55.67992 | 12.75239 | 1514 ft | 197 kts | 225° |
| 2026-05-04 01:41 | 55.67005 | 12.73703 | 1263 ft | 180 kts | 224° |
| 2026-05-04 01:41 | 55.66114 | 12.72319 | 1025 ft | 161 kts | 224° |
| 2026-05-04 01:42 | 55.65313 | 12.71072 | 798 ft | 147 kts | 223° |
| 2026-05-04 01:42 | 55.64563 | 12.69905 | 597 ft | 140 kts | 223° |
| 2026-05-04 01:42 | 55.63842 | 12.68784 | 408 ft | 137 kts | 222° |
| 2026-05-04 01:42 | 55.63124 | 12.67669 | 220 ft | 139 kts | 221° |
| 2026-05-04 01:43 | 55.62400 | 12.66546 | 42 ft | 137 kts | 220° |
| 2026-05-04 01:43 | 55.61791 | 12.65600 | 25 ft | 81 kts | 221° |
| 2026-05-04 01:43 | 55.61607 | 12.65251 | 24 ft | 17 kts | 258° |
| 2026-05-04 01:43 | 55.61618 | 12.65028 | 24 ft | 20 kts | 291° |
| 2026-05-04 01:44 | 55.61719 | 12.64825 | 24 ft | 25 kts | 326° |
| 2026-05-04 01:44 | 55.61899 | 12.64822 | 26 ft | 30 kts | 27° |
| 2026-05-04 01:44 | 55.62014 | 12.64952 | 24 ft | 18 kts | 33° |
| 2026-05-04 01:44 | 55.62133 | 12.65091 | 24 ft | 23 kts | 33° |
| 2026-05-04 01:45 | 55.62282 | 12.65198 | 24 ft | 21 kts | 359° |
| 2026-05-04 01:45 | 55.62393 | 12.65202 | 26 ft | 16 kts | 358° |
| 2026-05-04 01:45 | 55.62590 | 12.65180 | 24 ft | 12 kts | 358° |
| 2026-05-04 01:46 | 55.62666 | 12.65234 | 24 ft | 11 kts | 28° |
| 2026-05-04 01:46 | 55.62712 | 12.65247 | 24 ft | 5 kts | 6° |
| 2026-05-04 01:46 | 55.62731 | 12.65251 | 24 ft | 2 kts | 6° |
| 2026-05-04 01:46 | 55.62734 | 12.65251 | 24 ft | 0 kts | 6° |